Aeroporto :
LOGIN :

Iscrizione | Disclaimer

   EN    FR    IT 

 










Sommario :    VFR   VFR Marginale   IFR   IFR Intensivo   IFR Molto Intensivo
Visibilità : 
Base nubi : 
>= 8 km
>= 3000ft
5 / 8 km
1000 / 3000 ft
1500m / 5 km
500 / 1000 ft
800 / 1500m
200 / 500 ft
< 800m
< 200 ft
Simboli :   Temporali  Nebbia  Neve Forte  Precipitazioni Forti  Vento > 20 kt
SIGMETs :   Varie  Temporali  Ghiacco  Turbolenza  Onda orograficha  Ceneri Vulcaniche






- Altitudine del aeroporto : 297 ft
- Codice IATA : UIP


LFRQ - Quimper Pluguffan

ULTIMO METAR :
  • 131430Z AUTO 22013KT 190V250 9999 SCT025/// BKN033/// OVC040/// ///TCU 09/07 Q1000 TEMPO 21020G35KT 2000 +RA OVC005 SCT020CB

METARs OBSOLETI :
  • 131400Z AUTO 22012KT 9999 FEW026/// SCT039/// BKN054/// ///TCU 10/06 Q1001 TEMPO 21020G35KT 2000 +RA OVC005 SCT020CB
  • 131330Z AUTO 22012KT 190V250 9999 BKN030/// BKN039/// BKN048/// ///TCU 10/06 Q1002 TEMPO 21020G35KT 2000 +RA OVC005 SCT020CB
  • 131300Z AUTO 22011KT 190V250 9999 SCT027/// BKN036/// BKN045/// ///TCU 10/06 Q1003 TEMPO 21020G35KT 2000 +RA OVC005 SCT020CB
  • 131230Z AUTO 23013G23KT 9999 SCT026/// SCT033/// BKN046/// ///TCU 10/06 Q1004 TEMPO 21020G35KT 2000 +RA OVC005 SCT020CB
  • 131200Z AUTO 23011KT 9999 BKN031/// BKN039/// OVC050/// ///TCU 10/05 Q1004 BECMG 22015G25KT 4000 RA BKN010

TAF AMD TAF LFRQ
Valido dal 13 a 14 ore il 14 a 12 ore UTC


131420Z 1314/1412 20015KT 9999 SCT020 OVC030
BECMG 1314/1316 20018G30KT 4000 RA BKN016
TEMPO 1315/1317 21025G40KT 2000 RA OVC009 SCT020CB
PROB30
TEMPO 1315/1316 TSRA
BECMG 1317/1319 28014KT 9999 NSW SCT022TCU SCT032
TEMPO 1318/1412 30015G25KT 3000 SHRA SCT014CB SCT020
PROB30
TEMPO 1318/1409 TSGSRA



MetMap, La meteo Aeronautica in un colpo d'occhio ! - Copyright ORBIFLY Dicembre 2007 - Disclaimer

ORBIFLY MET'MAP TEAM :

Programmazione e sviluppo : Alexandra Zaïnal
Concezione e sviluppo : Baudouin d'Aumeries
Co-Programmazione e sviluppo : Marc-Olivier Méhu
Supporto tecnico e logistico : Manuel Goepfert
Aiuto per la traduzione : Arnaldo La Scala

Contatto : metmap@orbifly.com




FONTI E CREDITI :

   NOAA